sensor_id;sensor_type;location;lat;lon;timestamp;P1;durP1;ratioP1;P2;durP2;ratioP2
20229;SDS011;12195;55.790;37.572;2023-02-18T00:01:37;21.48;;;10.30;;
20229;SDS011;12195;55.790;37.572;2023-02-18T00:04:09;23.73;;;10.15;;
20229;SDS011;12195;55.790;37.572;2023-02-18T00:06:42;23.07;;;11.10;;
20229;SDS011;12195;55.790;37.572;2023-02-18T00:09:14;17.92;;;9.58;;
20229;SDS011;12195;55.790;37.572;2023-02-18T00:11:46;22.93;;;9.85;;
20229;SDS011;12195;55.790;37.572;2023-02-18T00:14:18;22.77;;;10.40;;
20229;SDS011;12195;55.790;37.572;2023-02-18T00:16:50;23.60;;;11.33;;
20229;SDS011;12195;55.790;37.572;2023-02-18T00:19:22;21.07;;;11.38;;
20229;SDS011;12195;55.790;37.572;2023-02-18T00:21:54;23.40;;;10.23;;
20229;SDS011;12195;55.790;37.572;2023-02-18T00:24:27;23.25;;;9.93;;
20229;SDS011;12195;55.790;37.572;2023-02-18T00:26:59;20.55;;;9.85;;
20229;SDS011;12195;55.790;37.572;2023-02-18T00:29:31;19.77;;;9.80;;
20229;SDS011;12195;55.790;37.572;2023-02-18T00:32:03;19.10;;;10.10;;
20229;SDS011;12195;55.790;37.572;2023-02-18T00:34:37;11.78;;;7.33;;
20229;SDS011;12195;55.790;37.572;2023-02-18T00:37:09;18.37;;;9.43;;
20229;SDS011;12195;55.790;37.572;2023-02-18T00:39:41;19.27;;;9.98;;
20229;SDS011;12195;55.790;37.572;2023-02-18T00:42:14;16.23;;;8.10;;
20229;SDS011;12195;55.790;37.572;2023-02-18T00:44:46;19.60;;;9.33;;
20229;SDS011;12195;55.790;37.572;2023-02-18T00:47:19;21.93;;;9.43;;
20229;SDS011;12195;55.790;37.572;2023-02-18T00:49:51;19.92;;;10.05;;
20229;SDS011;12195;55.790;37.572;2023-02-18T00:52:23;22.17;;;10.70;;
20229;SDS011;12195;55.790;37.572;2023-02-18T00:54:55;18.65;;;9.35;;
20229;SDS011;12195;55.790;37.572;2023-02-18T00:57:29;20.00;;;10.45;;
20229;SDS011;12195;55.790;37.572;2023-02-18T01:00:02;16.80;;;9.40;;
20229;SDS011;12195;55.790;37.572;2023-02-18T01:02:36;25.35;;;10.20;;
20229;SDS011;12195;55.790;37.572;2023-02-18T01:05:08;17.12;;;9.05;;
20229;SDS011;12195;55.790;37.572;2023-02-18T01:07:41;18.92;;;9.33;;
20229;SDS011;12195;55.790;37.572;2023-02-18T01:10:13;19.23;;;9.18;;
20229;SDS011;12195;55.790;37.572;2023-02-18T01:12:47;20.72;;;9.43;;
20229;SDS011;12195;55.790;37.572;2023-02-18T01:15:19;17.45;;;9.40;;
20229;SDS011;12195;55.790;37.572;2023-02-18T01:17:51;18.65;;;9.95;;
20229;SDS011;12195;55.790;37.572;2023-02-18T01:20:24;16.60;;;8.80;;
20229;SDS011;12195;55.790;37.572;2023-02-18T01:22:56;23.05;;;9.73;;
20229;SDS011;12195;55.790;37.572;2023-02-18T01:25:29;21.40;;;9.88;;
20229;SDS011;12195;55.790;37.572;2023-02-18T01:28:02;19.37;;;9.70;;
20229;SDS011;12195;55.790;37.572;2023-02-18T01:30:35;20.72;;;9.38;;
20229;SDS011;12195;55.790;37.572;2023-02-18T01:33:07;16.82;;;8.83;;
20229;SDS011;12195;55.790;37.572;2023-02-18T01:35:40;20.57;;;9.63;;
20229;SDS011;12195;55.790;37.572;2023-02-18T01:38:12;22.00;;;10.23;;
20229;SDS011;12195;55.790;37.572;2023-02-18T01:40:46;18.10;;;10.72;;
20229;SDS011;12195;55.790;37.572;2023-02-18T01:43:22;18.57;;;9.63;;
20229;SDS011;12195;55.790;37.572;2023-02-18T01:45:58;22.52;;;10.32;;
20229;SDS011;12195;55.790;37.572;2023-02-18T01:51:18;19.40;;;10.13;;
20229;SDS011;12195;55.790;37.572;2023-02-18T01:53:55;21.07;;;8.43;;
20229;SDS011;12195;55.790;37.572;2023-02-18T01:56:44;19.17;;;9.60;;
20229;SDS011;12195;55.790;37.572;2023-02-18T01:59:15;21.77;;;10.18;;
20229;SDS011;12195;55.790;37.572;2023-02-18T02:01:49;20.75;;;10.35;;
20229;SDS011;12195;55.790;37.572;2023-02-18T02:04:21;21.12;;;9.10;;
20229;SDS011;12195;55.790;37.572;2023-02-18T02:06:54;22.07;;;10.38;;
20229;SDS011;12195;55.790;37.572;2023-02-18T02:09:28;17.05;;;8.18;;
20229;SDS011;12195;55.790;37.572;2023-02-18T02:18:02;20.35;;;10.08;;
20229;SDS011;12195;55.790;37.572;2023-02-18T02:23:42;16.85;;;8.23;;
20229;SDS011;12195;55.790;37.572;2023-02-18T02:29:30;18.48;;;9.45;;
20229;SDS011;12195;55.790;37.572;2023-02-18T02:38:25;20.60;;;9.63;;
20229;SDS011;12195;55.790;37.572;2023-02-18T02:41:07;23.95;;;10.15;;
20229;SDS011;12195;55.790;37.572;2023-02-18T02:43:57;23.20;;;10.55;;
20229;SDS011;12195;55.790;37.572;2023-02-18T02:46:37;19.17;;;9.45;;
20229;SDS011;12195;55.790;37.572;2023-02-18T02:52:07;15.85;;;8.20;;
20229;SDS011;12195;55.790;37.572;2023-02-18T02:54:39;17.20;;;7.92;;
20229;SDS011;12195;55.790;37.572;2023-02-18T02:59:52;22.98;;;9.80;;
20229;SDS011;12195;55.790;37.572;2023-02-18T03:02:42;21.33;;;10.53;;
20229;SDS011;12195;55.790;37.572;2023-02-18T03:05:38;30.70;;;13.68;;
20229;SDS011;12195;55.790;37.572;2023-02-18T03:08:33;19.30;;;9.10;;
20229;SDS011;12195;55.790;37.572;2023-02-18T03:11:18;14.47;;;7.30;;
20229;SDS011;12195;55.790;37.572;2023-02-18T03:16:49;21.52;;;8.90;;
20229;SDS011;12195;55.790;37.572;2023-02-18T03:19:34;12.43;;;6.15;;
20229;SDS011;12195;55.790;37.572;2023-02-18T03:22:12;15.78;;;7.83;;
20229;SDS011;12195;55.790;37.572;2023-02-18T03:25:00;18.12;;;8.20;;
20229;SDS011;12195;55.790;37.572;2023-02-18T03:27:36;12.20;;;7.20;;
20229;SDS011;12195;55.790;37.572;2023-02-18T03:30:31;23.60;;;10.05;;
20229;SDS011;12195;55.790;37.572;2023-02-18T03:33:08;13.60;;;6.50;;
20229;SDS011;12195;55.790;37.572;2023-02-18T03:35:44;22.22;;;10.98;;
20229;SDS011;12195;55.790;37.572;2023-02-18T03:38:28;22.35;;;10.50;;
20229;SDS011;12195;55.790;37.572;2023-02-18T03:41:18;20.88;;;8.88;;
20229;SDS011;12195;55.790;37.572;2023-02-18T03:44:04;21.12;;;10.53;;
20229;SDS011;12195;55.790;37.572;2023-02-18T03:46:31;24.75;;;11.63;;
20229;SDS011;12195;55.790;37.572;2023-02-18T03:49:04;25.60;;;9.90;;
20229;SDS011;12195;55.790;37.572;2023-02-18T03:51:37;25.32;;;12.47;;
20229;SDS011;12195;55.790;37.572;2023-02-18T03:54:09;43.00;;;15.53;;
20229;SDS011;12195;55.790;37.572;2023-02-18T03:56:43;37.78;;;16.48;;
20229;SDS011;12195;55.790;37.572;2023-02-18T03:59:15;41.40;;;15.78;;
20229;SDS011;12195;55.790;37.572;2023-02-18T04:01:47;38.05;;;16.25;;
20229;SDS011;12195;55.790;37.572;2023-02-18T04:04:19;37.42;;;16.52;;
20229;SDS011;12195;55.790;37.572;2023-02-18T04:06:52;23.42;;;9.60;;
20229;SDS011;12195;55.790;37.572;2023-02-18T04:09:24;28.85;;;11.50;;
20229;SDS011;12195;55.790;37.572;2023-02-18T04:11:56;35.00;;;15.72;;
20229;SDS011;12195;55.790;37.572;2023-02-18T04:14:28;36.23;;;16.57;;
20229;SDS011;12195;55.790;37.572;2023-02-18T04:17:00;47.65;;;17.67;;
20229;SDS011;12195;55.790;37.572;2023-02-18T04:19:33;38.90;;;16.55;;
20229;SDS011;12195;55.790;37.572;2023-02-18T04:22:05;32.85;;;14.85;;
20229;SDS011;12195;55.790;37.572;2023-02-18T04:24:38;39.55;;;17.05;;
20229;SDS011;12195;55.790;37.572;2023-02-18T04:27:10;30.35;;;12.93;;
20229;SDS011;12195;55.790;37.572;2023-02-18T04:29:42;31.62;;;14.68;;
20229;SDS011;12195;55.790;37.572;2023-02-18T04:32:14;37.45;;;15.60;;
20229;SDS011;12195;55.790;37.572;2023-02-18T04:34:46;33.23;;;14.40;;
20229;SDS011;12195;55.790;37.572;2023-02-18T04:37:18;38.30;;;16.35;;
20229;SDS011;12195;55.790;37.572;2023-02-18T04:39:51;18.77;;;8.65;;
20229;SDS011;12195;55.790;37.572;2023-02-18T04:42:23;28.07;;;12.98;;
20229;SDS011;12195;55.790;37.572;2023-02-18T04:44:55;33.58;;;15.08;;
20229;SDS011;12195;55.790;37.572;2023-02-18T04:47:29;22.70;;;10.28;;
20229;SDS011;12195;55.790;37.572;2023-02-18T04:50:02;28.10;;;13.75;;
20229;SDS011;12195;55.790;37.572;2023-02-18T04:52:34;13.18;;;8.50;;
20229;SDS011;12195;55.790;37.572;2023-02-18T04:55:07;33.42;;;16.40;;
20229;SDS011;12195;55.790;37.572;2023-02-18T04:57:40;35.48;;;16.52;;
20229;SDS011;12195;55.790;37.572;2023-02-18T05:00:17;35.65;;;17.48;;
20229;SDS011;12195;55.790;37.572;2023-02-18T05:02:48;33.58;;;14.40;;
20229;SDS011;12195;55.790;37.572;2023-02-18T05:05:20;28.45;;;11.43;;
20229;SDS011;12195;55.790;37.572;2023-02-18T05:07:52;27.42;;;13.88;;
20229;SDS011;12195;55.790;37.572;2023-02-18T05:10:24;20.82;;;9.05;;
20229;SDS011;12195;55.790;37.572;2023-02-18T05:12:57;31.70;;;15.40;;
20229;SDS011;12195;55.790;37.572;2023-02-18T05:15:29;18.77;;;8.45;;
20229;SDS011;12195;55.790;37.572;2023-02-18T05:18:02;30.90;;;14.63;;
20229;SDS011;12195;55.790;37.572;2023-02-18T05:20:34;25.30;;;11.85;;
20229;SDS011;12195;55.790;37.572;2023-02-18T05:23:06;21.20;;;10.55;;
20229;SDS011;12195;55.790;37.572;2023-02-18T05:25:38;28.05;;;14.03;;
20229;SDS011;12195;55.790;37.572;2023-02-18T05:28:10;29.60;;;13.60;;
20229;SDS011;12195;55.790;37.572;2023-02-18T05:30:43;28.05;;;13.98;;
20229;SDS011;12195;55.790;37.572;2023-02-18T05:33:15;24.30;;;12.18;;
20229;SDS011;12195;55.790;37.572;2023-02-18T05:35:50;26.02;;;11.90;;
20229;SDS011;12195;55.790;37.572;2023-02-18T05:38:23;28.50;;;13.62;;
20229;SDS011;12195;55.790;37.572;2023-02-18T05:40:55;24.52;;;11.90;;
20229;SDS011;12195;55.790;37.572;2023-02-18T05:43:27;26.52;;;12.03;;
20229;SDS011;12195;55.790;37.572;2023-02-18T05:46:00;28.57;;;15.35;;
20229;SDS011;12195;55.790;37.572;2023-02-18T05:48:34;21.33;;;11.10;;
20229;SDS011;12195;55.790;37.572;2023-02-18T05:51:07;28.50;;;13.30;;
20229;SDS011;12195;55.790;37.572;2023-02-18T05:53:40;23.60;;;13.00;;
20229;SDS011;12195;55.790;37.572;2023-02-18T05:56:12;23.87;;;11.08;;
20229;SDS011;12195;55.790;37.572;2023-02-18T05:58:44;33.15;;;15.03;;
20229;SDS011;12195;55.790;37.572;2023-02-18T06:01:16;25.90;;;13.00;;
20229;SDS011;12195;55.790;37.572;2023-02-18T06:03:49;40.75;;;20.17;;
20229;SDS011;12195;55.790;37.572;2023-02-18T06:06:22;33.20;;;14.85;;
20229;SDS011;12195;55.790;37.572;2023-02-18T06:08:55;29.67;;;15.32;;
20229;SDS011;12195;55.790;37.572;2023-02-18T06:11:27;17.35;;;8.33;;
20229;SDS011;12195;55.790;37.572;2023-02-18T06:13:59;35.05;;;16.30;;
20229;SDS011;12195;55.790;37.572;2023-02-18T06:16:34;38.30;;;16.45;;
20229;SDS011;12195;55.790;37.572;2023-02-18T06:19:07;29.77;;;13.35;;
20229;SDS011;12195;55.790;37.572;2023-02-18T06:21:39;15.32;;;7.15;;
20229;SDS011;12195;55.790;37.572;2023-02-18T06:24:11;19.10;;;9.43;;
20229;SDS011;12195;55.790;37.572;2023-02-18T06:26:44;29.80;;;15.68;;
20229;SDS011;12195;55.790;37.572;2023-02-18T06:29:16;29.67;;;14.25;;
20229;SDS011;12195;55.790;37.572;2023-02-18T06:31:49;28.47;;;13.65;;
20229;SDS011;12195;55.790;37.572;2023-02-18T06:34:22;24.95;;;11.93;;
20229;SDS011;12195;55.790;37.572;2023-02-18T06:36:54;20.23;;;10.53;;
20229;SDS011;12195;55.790;37.572;2023-02-18T06:39:29;13.30;;;6.97;;
20229;SDS011;12195;55.790;37.572;2023-02-18T06:42:02;21.77;;;10.40;;
20229;SDS011;12195;55.790;37.572;2023-02-18T06:44:34;21.30;;;11.20;;
20229;SDS011;12195;55.790;37.572;2023-02-18T06:47:07;26.57;;;11.55;;
20229;SDS011;12195;55.790;37.572;2023-02-18T06:49:39;18.87;;;9.48;;
20229;SDS011;12195;55.790;37.572;2023-02-18T06:52:11;19.42;;;9.83;;
20229;SDS011;12195;55.790;37.572;2023-02-18T06:54:44;20.95;;;9.95;;
20229;SDS011;12195;55.790;37.572;2023-02-18T06:57:16;17.80;;;8.23;;
20229;SDS011;12195;55.790;37.572;2023-02-18T06:59:49;20.03;;;9.60;;
20229;SDS011;12195;55.790;37.572;2023-02-18T07:02:22;15.98;;;8.70;;
20229;SDS011;12195;55.790;37.572;2023-02-18T07:04:54;17.00;;;8.05;;
20229;SDS011;12195;55.790;37.572;2023-02-18T07:07:26;14.50;;;7.10;;
20229;SDS011;12195;55.790;37.572;2023-02-18T07:09:58;9.10;;;5.37;;
20229;SDS011;12195;55.790;37.572;2023-02-18T07:12:31;12.07;;;6.42;;
20229;SDS011;12195;55.790;37.572;2023-02-18T07:15:03;10.05;;;5.85;;
20229;SDS011;12195;55.790;37.572;2023-02-18T07:17:36;11.03;;;6.80;;
20229;SDS011;12195;55.790;37.572;2023-02-18T07:20:08;9.05;;;5.95;;
20229;SDS011;12195;55.790;37.572;2023-02-18T07:22:41;9.93;;;6.12;;
20229;SDS011;12195;55.790;37.572;2023-02-18T07:25:14;10.45;;;5.58;;
20229;SDS011;12195;55.790;37.572;2023-02-18T07:27:47;10.82;;;5.95;;
20229;SDS011;12195;55.790;37.572;2023-02-18T07:30:19;9.43;;;5.43;;
20229;SDS011;12195;55.790;37.572;2023-02-18T07:32:52;13.28;;;6.05;;
20229;SDS011;12195;55.790;37.572;2023-02-18T07:35:24;9.63;;;5.40;;
20229;SDS011;12195;55.790;37.572;2023-02-18T07:37:56;14.35;;;4.87;;
20229;SDS011;12195;55.790;37.572;2023-02-18T07:40:29;14.10;;;5.08;;
20229;SDS011;12195;55.790;37.572;2023-02-18T07:43:01;14.57;;;6.33;;
20229;SDS011;12195;55.790;37.572;2023-02-18T07:45:38;11.40;;;5.10;;
20229;SDS011;12195;55.790;37.572;2023-02-18T07:48:12;10.88;;;4.25;;
20229;SDS011;12195;55.790;37.572;2023-02-18T07:50:44;8.55;;;4.67;;
20229;SDS011;12195;55.790;37.572;2023-02-18T07:53:18;6.12;;;3.65;;
20229;SDS011;12195;55.790;37.572;2023-02-18T07:55:51;6.75;;;3.70;;
20229;SDS011;12195;55.790;37.572;2023-02-18T07:58:25;7.37;;;4.67;;
20229;SDS011;12195;55.790;37.572;2023-02-18T08:01:06;7.17;;;3.77;;
20229;SDS011;12195;55.790;37.572;2023-02-18T08:03:39;8.73;;;5.20;;
20229;SDS011;12195;55.790;37.572;2023-02-18T08:06:18;10.23;;;6.22;;
20229;SDS011;12195;55.790;37.572;2023-02-18T08:08:55;6.00;;;3.42;;
20229;SDS011;12195;55.790;37.572;2023-02-18T08:11:29;8.50;;;5.05;;
20229;SDS011;12195;55.790;37.572;2023-02-18T08:14:02;5.55;;;3.30;;
20229;SDS011;12195;55.790;37.572;2023-02-18T08:16:35;11.43;;;5.50;;
20229;SDS011;12195;55.790;37.572;2023-02-18T08:19:09;10.68;;;5.08;;
20229;SDS011;12195;55.790;37.572;2023-02-18T08:21:42;10.55;;;5.40;;
20229;SDS011;12195;55.790;37.572;2023-02-18T08:24:15;9.78;;;5.90;;
20229;SDS011;12195;55.790;37.572;2023-02-18T08:26:47;8.83;;;4.53;;
20229;SDS011;12195;55.790;37.572;2023-02-18T08:29:21;11.18;;;4.60;;
20229;SDS011;12195;55.790;37.572;2023-02-18T08:31:54;9.20;;;5.45;;
20229;SDS011;12195;55.790;37.572;2023-02-18T08:34:27;8.68;;;3.75;;
20229;SDS011;12195;55.790;37.572;2023-02-18T08:37:00;9.35;;;4.60;;
20229;SDS011;12195;55.790;37.572;2023-02-18T08:39:33;7.70;;;4.83;;
20229;SDS011;12195;55.790;37.572;2023-02-18T08:42:08;7.90;;;4.67;;
20229;SDS011;12195;55.790;37.572;2023-02-18T08:44:41;9.13;;;5.17;;
20229;SDS011;12195;55.790;37.572;2023-02-18T08:47:13;8.03;;;4.30;;
20229;SDS011;12195;55.790;37.572;2023-02-18T08:49:47;6.28;;;4.28;;
20229;SDS011;12195;55.790;37.572;2023-02-18T08:52:19;5.72;;;3.58;;
20229;SDS011;12195;55.790;37.572;2023-02-18T08:54:52;9.13;;;5.30;;
20229;SDS011;12195;55.790;37.572;2023-02-18T08:57:26;7.55;;;4.60;;
20229;SDS011;12195;55.790;37.572;2023-02-18T08:59:59;12.13;;;4.50;;
20229;SDS011;12195;55.790;37.572;2023-02-18T09:02:31;4.67;;;3.43;;
20229;SDS011;12195;55.790;37.572;2023-02-18T09:05:04;8.80;;;5.25;;
20229;SDS011;12195;55.790;37.572;2023-02-18T09:07:37;7.33;;;4.12;;
20229;SDS011;12195;55.790;37.572;2023-02-18T09:10:10;8.60;;;4.95;;
20229;SDS011;12195;55.790;37.572;2023-02-18T09:12:42;7.78;;;4.15;;
20229;SDS011;12195;55.790;37.572;2023-02-18T09:15:15;8.75;;;4.37;;
20229;SDS011;12195;55.790;37.572;2023-02-18T09:17:48;9.70;;;5.75;;
20229;SDS011;12195;55.790;37.572;2023-02-18T09:20:21;9.45;;;6.00;;
20229;SDS011;12195;55.790;37.572;2023-02-18T09:22:53;9.43;;;4.65;;
20229;SDS011;12195;55.790;37.572;2023-02-18T09:25:27;9.85;;;5.15;;
20229;SDS011;12195;55.790;37.572;2023-02-18T09:28:00;7.70;;;4.53;;
20229;SDS011;12195;55.790;37.572;2023-02-18T09:30:37;67.95;;;10.53;;
20229;SDS011;12195;55.790;37.572;2023-02-18T09:33:10;8.10;;;5.05;;
20229;SDS011;12195;55.790;37.572;2023-02-18T09:35:44;8.60;;;5.13;;
20229;SDS011;12195;55.790;37.572;2023-02-18T09:38:17;9.28;;;5.25;;
20229;SDS011;12195;55.790;37.572;2023-02-18T09:40:49;10.10;;;5.00;;
20229;SDS011;12195;55.790;37.572;2023-02-18T09:43:27;10.38;;;5.58;;
20229;SDS011;12195;55.790;37.572;2023-02-18T09:46:03;10.60;;;5.65;;
20229;SDS011;12195;55.790;37.572;2023-02-18T09:48:38;10.30;;;5.62;;
20229;SDS011;12195;55.790;37.572;2023-02-18T09:51:13;6.53;;;4.53;;
20229;SDS011;12195;55.790;37.572;2023-02-18T09:53:46;8.23;;;5.53;;
20229;SDS011;12195;55.790;37.572;2023-02-18T09:56:21;12.23;;;5.53;;
20229;SDS011;12195;55.790;37.572;2023-02-18T09:58:56;10.43;;;5.42;;
20229;SDS011;12195;55.790;37.572;2023-02-18T10:01:34;11.55;;;6.53;;
20229;SDS011;12195;55.790;37.572;2023-02-18T10:04:16;8.73;;;5.95;;
20229;SDS011;12195;55.790;37.572;2023-02-18T10:06:53;9.28;;;5.30;;
20229;SDS011;12195;55.790;37.572;2023-02-18T10:09:33;9.53;;;5.03;;
20229;SDS011;12195;55.790;37.572;2023-02-18T10:12:18;17.20;;;7.22;;
20229;SDS011;12195;55.790;37.572;2023-02-18T10:14:52;9.53;;;5.75;;
20229;SDS011;12195;55.790;37.572;2023-02-18T10:17:30;8.83;;;5.55;;
20229;SDS011;12195;55.790;37.572;2023-02-18T10:20:03;11.73;;;6.12;;
20229;SDS011;12195;55.790;37.572;2023-02-18T10:22:37;8.80;;;4.95;;
20229;SDS011;12195;55.790;37.572;2023-02-18T10:25:11;9.13;;;5.55;;
20229;SDS011;12195;55.790;37.572;2023-02-18T10:27:46;6.97;;;4.72;;
20229;SDS011;12195;55.790;37.572;2023-02-18T10:30:30;7.65;;;4.80;;
20229;SDS011;12195;55.790;37.572;2023-02-18T10:36:15;8.03;;;4.78;;
20229;SDS011;12195;55.790;37.572;2023-02-18T10:41:35;7.85;;;5.40;;
20229;SDS011;12195;55.790;37.572;2023-02-18T10:44:33;8.18;;;4.78;;
20229;SDS011;12195;55.790;37.572;2023-02-18T10:50:04;9.40;;;5.60;;
20229;SDS011;12195;55.790;37.572;2023-02-18T10:52:42;8.20;;;4.75;;
20229;SDS011;12195;55.790;37.572;2023-02-18T10:55:15;10.00;;;4.35;;
20229;SDS011;12195;55.790;37.572;2023-02-18T10:57:52;9.75;;;5.37;;
20229;SDS011;12195;55.790;37.572;2023-02-18T11:00:26;11.73;;;5.75;;
20229;SDS011;12195;55.790;37.572;2023-02-18T11:03:20;8.03;;;4.62;;
20229;SDS011;12195;55.790;37.572;2023-02-18T11:05:55;5.63;;;4.37;;
20229;SDS011;12195;55.790;37.572;2023-02-18T11:08:30;10.68;;;5.05;;
20229;SDS011;12195;55.790;37.572;2023-02-18T11:11:08;9.70;;;5.15;;
20229;SDS011;12195;55.790;37.572;2023-02-18T11:13:40;8.35;;;5.47;;
20229;SDS011;12195;55.790;37.572;2023-02-18T11:16:15;12.98;;;5.17;;
20229;SDS011;12195;55.790;37.572;2023-02-18T11:18:47;10.65;;;5.78;;
20229;SDS011;12195;55.790;37.572;2023-02-18T11:21:23;11.07;;;5.90;;
20229;SDS011;12195;55.790;37.572;2023-02-18T11:24:14;4.87;;;3.08;;
20229;SDS011;12195;55.790;37.572;2023-02-18T11:26:45;10.72;;;5.80;;
20229;SDS011;12195;55.790;37.572;2023-02-18T11:29:22;8.98;;;5.72;;
20229;SDS011;12195;55.790;37.572;2023-02-18T11:31:55;9.30;;;5.87;;
20229;SDS011;12195;55.790;37.572;2023-02-18T11:34:31;10.43;;;5.22;;
20229;SDS011;12195;55.790;37.572;2023-02-18T11:37:16;11.38;;;6.47;;
20229;SDS011;12195;55.790;37.572;2023-02-18T11:39:49;9.68;;;6.35;;
20229;SDS011;12195;55.790;37.572;2023-02-18T11:42:24;7.15;;;5.40;;
20229;SDS011;12195;55.790;37.572;2023-02-18T11:44:59;9.45;;;5.45;;
20229;SDS011;12195;55.790;37.572;2023-02-18T11:47:34;9.48;;;5.30;;
20229;SDS011;12195;55.790;37.572;2023-02-18T11:52:46;15.83;;;6.00;;
20229;SDS011;12195;55.790;37.572;2023-02-18T11:55:21;6.72;;;5.30;;
20229;SDS011;12195;55.790;37.572;2023-02-18T11:58:00;11.95;;;6.30;;
20229;SDS011;12195;55.790;37.572;2023-02-18T12:00:39;16.85;;;8.15;;
20229;SDS011;12195;55.790;37.572;2023-02-18T12:05:56;11.57;;;6.25;;
20229;SDS011;12195;55.790;37.572;2023-02-18T12:08:31;10.82;;;5.92;;
20229;SDS011;12195;55.790;37.572;2023-02-18T12:11:07;11.70;;;6.00;;
20229;SDS011;12195;55.790;37.572;2023-02-18T12:14:02;9.85;;;5.45;;
20229;SDS011;12195;55.790;37.572;2023-02-18T12:16:35;14.98;;;5.87;;
20229;SDS011;12195;55.790;37.572;2023-02-18T12:25:02;8.40;;;6.00;;
20229;SDS011;12195;55.790;37.572;2023-02-18T12:41:26;6.00;;;4.03;;
20229;SDS011;12195;55.790;37.572;2023-02-18T12:44:19;8.38;;;5.42;;
20229;SDS011;12195;55.790;37.572;2023-02-18T12:47:04;11.48;;;5.47;;
20229;SDS011;12195;55.790;37.572;2023-02-18T12:53:03;13.22;;;5.87;;
20229;SDS011;12195;55.790;37.572;2023-02-18T12:55:36;7.53;;;5.37;;
20229;SDS011;12195;55.790;37.572;2023-02-18T12:58:25;8.10;;;5.72;;
20229;SDS011;12195;55.790;37.572;2023-02-18T13:01:17;9.08;;;4.35;;
20229;SDS011;12195;55.790;37.572;2023-02-18T13:04:18;6.67;;;4.28;;
20229;SDS011;12195;55.790;37.572;2023-02-18T13:06:59;6.00;;;3.80;;
20229;SDS011;12195;55.790;37.572;2023-02-18T13:15:22;6.87;;;4.67;;
20229;SDS011;12195;55.790;37.572;2023-02-18T13:17:56;5.60;;;3.98;;
20229;SDS011;12195;55.790;37.572;2023-02-18T13:20:34;10.80;;;5.50;;
20229;SDS011;12195;55.790;37.572;2023-02-18T13:23:15;10.48;;;6.03;;
20229;SDS011;12195;55.790;37.572;2023-02-18T13:25:50;12.45;;;5.83;;
20229;SDS011;12195;55.790;37.572;2023-02-18T13:29:04;8.43;;;5.42;;
20229;SDS011;12195;55.790;37.572;2023-02-18T13:34:11;5.00;;;2.90;;
20229;SDS011;12195;55.790;37.572;2023-02-18T13:39:25;11.05;;;6.15;;
20229;SDS011;12195;55.790;37.572;2023-02-18T13:42:23;8.88;;;5.55;;
20229;SDS011;12195;55.790;37.572;2023-02-18T13:45:01;8.50;;;5.20;;
20229;SDS011;12195;55.790;37.572;2023-02-18T13:58:41;11.15;;;6.20;;
20229;SDS011;12195;55.790;37.572;2023-02-18T14:01:20;11.08;;;6.20;;
20229;SDS011;12195;55.790;37.572;2023-02-18T14:03:58;12.10;;;5.62;;
20229;SDS011;12195;55.790;37.572;2023-02-18T14:06:32;9.55;;;5.22;;
20229;SDS011;12195;55.790;37.572;2023-02-18T14:11:47;14.83;;;7.95;;
20229;SDS011;12195;55.790;37.572;2023-02-18T14:14:32;13.78;;;7.37;;
20229;SDS011;12195;55.790;37.572;2023-02-18T14:17:13;11.75;;;5.83;;
20229;SDS011;12195;55.790;37.572;2023-02-18T14:22:59;9.13;;;5.60;;
20229;SDS011;12195;55.790;37.572;2023-02-18T14:25:34;6.33;;;3.80;;
20229;SDS011;12195;55.790;37.572;2023-02-18T14:39:33;8.68;;;4.62;;
20229;SDS011;12195;55.790;37.572;2023-02-18T14:45:03;7.33;;;4.95;;
20229;SDS011;12195;55.790;37.572;2023-02-18T14:50:38;5.03;;;3.10;;
20229;SDS011;12195;55.790;37.572;2023-02-18T14:53:14;10.30;;;5.60;;
20229;SDS011;12195;55.790;37.572;2023-02-18T14:55:50;8.18;;;4.97;;
20229;SDS011;12195;55.790;37.572;2023-02-18T14:58:28;11.43;;;4.78;;
20229;SDS011;12195;55.790;37.572;2023-02-18T15:03:50;8.85;;;5.37;;
20229;SDS011;12195;55.790;37.572;2023-02-18T15:12:04;9.48;;;4.22;;
20229;SDS011;12195;55.790;37.572;2023-02-18T15:14:39;9.05;;;4.92;;
20229;SDS011;12195;55.790;37.572;2023-02-18T15:17:14;11.75;;;5.35;;
20229;SDS011;12195;55.790;37.572;2023-02-18T15:19:52;9.43;;;5.97;;
20229;SDS011;12195;55.790;37.572;2023-02-18T15:22:30;9.88;;;4.33;;
20229;SDS011;12195;55.790;37.572;2023-02-18T15:25:05;9.88;;;4.95;;
20229;SDS011;12195;55.790;37.572;2023-02-18T15:27:41;5.92;;;3.27;;
20229;SDS011;12195;55.790;37.572;2023-02-18T15:30:29;9.03;;;4.17;;
20229;SDS011;12195;55.790;37.572;2023-02-18T15:33:01;6.05;;;4.45;;
20229;SDS011;12195;55.790;37.572;2023-02-18T15:35:35;6.33;;;3.30;;
20229;SDS011;12195;55.790;37.572;2023-02-18T15:38:18;5.28;;;3.10;;
20229;SDS011;12195;55.790;37.572;2023-02-18T15:40:51;7.35;;;4.95;;
20229;SDS011;12195;55.790;37.572;2023-02-18T15:43:25;4.33;;;2.92;;
20229;SDS011;12195;55.790;37.572;2023-02-18T15:45:59;6.35;;;4.17;;
20229;SDS011;12195;55.790;37.572;2023-02-18T15:48:37;6.72;;;4.20;;
20229;SDS011;12195;55.790;37.572;2023-02-18T15:51:10;7.05;;;4.42;;
20229;SDS011;12195;55.790;37.572;2023-02-18T15:53:47;9.20;;;4.47;;
20229;SDS011;12195;55.790;37.572;2023-02-18T15:56:33;7.58;;;4.83;;
20229;SDS011;12195;55.790;37.572;2023-02-18T16:04:41;7.97;;;4.75;;
20229;SDS011;12195;55.790;37.572;2023-02-18T16:07:21;9.38;;;5.12;;
20229;SDS011;12195;55.790;37.572;2023-02-18T16:10:23;10.58;;;5.17;;
20229;SDS011;12195;55.790;37.572;2023-02-18T16:12:58;6.05;;;3.67;;
20229;SDS011;12195;55.790;37.572;2023-02-18T16:15:40;10.90;;;5.92;;
20229;SDS011;12195;55.790;37.572;2023-02-18T16:19:00;9.53;;;4.87;;
20229;SDS011;12195;55.790;37.572;2023-02-18T16:21:21;8.73;;;5.37;;
20229;SDS011;12195;55.790;37.572;2023-02-18T16:29:10;6.90;;;4.10;;
20229;SDS011;12195;55.790;37.572;2023-02-18T16:31:44;9.00;;;5.45;;
20229;SDS011;12195;55.790;37.572;2023-02-18T16:34:17;8.20;;;4.85;;
20229;SDS011;12195;55.790;37.572;2023-02-18T16:36:50;8.05;;;4.95;;
20229;SDS011;12195;55.790;37.572;2023-02-18T16:39:41;9.43;;;4.67;;
20229;SDS011;12195;55.790;37.572;2023-02-18T16:42:13;10.28;;;5.15;;
20229;SDS011;12195;55.790;37.572;2023-02-18T16:44:45;8.55;;;5.03;;
20229;SDS011;12195;55.790;37.572;2023-02-18T16:47:19;8.73;;;4.72;;
20229;SDS011;12195;55.790;37.572;2023-02-18T16:49:51;8.23;;;4.62;;
20229;SDS011;12195;55.790;37.572;2023-02-18T16:52:24;8.68;;;5.10;;
20229;SDS011;12195;55.790;37.572;2023-02-18T16:54:56;6.42;;;3.75;;
20229;SDS011;12195;55.790;37.572;2023-02-18T16:57:29;8.90;;;4.67;;
20229;SDS011;12195;55.790;37.572;2023-02-18T17:00:01;14.23;;;5.15;;
20229;SDS011;12195;55.790;37.572;2023-02-18T17:02:34;9.68;;;4.55;;
20229;SDS011;12195;55.790;37.572;2023-02-18T17:05:07;7.58;;;4.37;;
20229;SDS011;12195;55.790;37.572;2023-02-18T17:07:41;8.73;;;5.05;;
20229;SDS011;12195;55.790;37.572;2023-02-18T17:10:14;9.38;;;5.17;;
20229;SDS011;12195;55.790;37.572;2023-02-18T17:12:47;10.20;;;5.35;;
20229;SDS011;12195;55.790;37.572;2023-02-18T17:15:25;6.83;;;4.22;;
20229;SDS011;12195;55.790;37.572;2023-02-18T17:18:00;7.00;;;4.30;;
20229;SDS011;12195;55.790;37.572;2023-02-18T17:20:33;11.20;;;5.35;;
20229;SDS011;12195;55.790;37.572;2023-02-18T17:23:06;7.95;;;5.00;;